Time;durP1;ratioP1;P1;durP2;ratioP2;P2;SDS_P1;SDS_P2;PMS_P1;PMS_P2;Temp;Humidity;BMP_temperature;BMP_pressure;BME280_temperature;BME280_humidity;BME280_pressure;Samples;Min_cycle;Max_cycle;Signal;HPM_P1;HPM_P2
2023/04/17 00:02:14;;;;;;;38.80;19.27;;;;;;;8.23;100.00;102475.63;4871734;29;20032;-78
2023/04/17 00:04:40;;;;;;;30.60;16.48;;;;;;;8.21;100.00;102479.41;4889363;29;20039;-78
2023/04/17 00:07:06;;;;;;;31.20;15.60;;;;;;;8.18;100.00;102477.84;4888879;29;20480;-78
2023/04/17 00:09:32;;;;;;;32.17;15.52;;;;;;;8.10;100.00;102472.41;4885471;29;20036;-79
2023/04/17 00:11:58;;;;;;;33.38;15.90;;;;;;;8.08;100.00;102461.06;4886850;29;20057;-78
2023/04/17 00:14:24;;;;;;;31.25;16.65;;;;;;;8.04;100.00;102464.97;4887723;29;20214;-78
2023/04/17 00:16:50;;;;;;;27.33;15.18;;;;;;;8.12;100.00;102476.59;4890463;29;20040;-79
2023/04/17 00:19:16;;;;;;;29.20;15.55;;;;;;;8.14;100.00;102473.78;4884076;29;20136;-78
2023/04/17 00:21:41;;;;;;;34.85;16.38;;;;;;;8.07;100.00;102459.41;4886156;29;20101;-78
2023/04/17 00:24:06;;;;;;;29.10;14.25;;;;;;;8.15;100.00;102474.63;4871980;29;20033;-78
2023/04/17 00:26:33;;;;;;;30.85;16.10;;;;;;;8.15;100.00;102478.16;4885849;29;20037;-78
2023/04/17 00:28:59;;;;;;;33.03;17.70;;;;;;;8.15;100.00;102466.66;4887117;29;20117;-78
2023/04/17 00:31:25;;;;;;;32.38;16.65;;;;;;;8.15;100.00;102477.28;4889742;29;20465;-79
2023/04/17 00:33:50;;;;;;;29.98;17.70;;;;;;;8.13;100.00;102474.78;4854990;29;20037;-78
2023/04/17 00:36:15;;;;;;;30.52;14.98;;;;;;;8.15;100.00;102475.50;4856045;29;20033;-79
2023/04/17 00:38:41;;;;;;;35.38;17.38;;;;;;;8.12;100.00;102476.59;4887981;29;20025;-78
2023/04/17 00:41:06;;;;;;;31.58;16.67;;;;;;;8.14;100.00;102473.78;4886367;29;20095;-78
2023/04/17 00:43:32;;;;;;;28.83;14.75;;;;;;;8.15;100.00;102475.50;4863474;29;20105;-78
2023/04/17 00:45:57;;;;;;;31.75;16.33;;;;;;;8.11;100.00;102471.41;4888847;29;20033;-78
2023/04/17 00:48:23;;;;;;;36.03;17.70;;;;;;;8.09;100.00;102470.72;4889823;29;20041;-78
2023/04/17 00:50:49;;;;;;;31.75;17.02;;;;;;;8.08;100.00;102477.03;4873290;29;20188;-78
2023/04/17 00:53:15;;;;;;;32.92;15.07;;;;;;;8.01;100.00;102455.47;4870340;29;20103;-78
2023/04/17 00:55:41;;;;;;;30.40;16.92;;;;;;;8.06;100.00;102455.06;4885278;29;20106;-78
2023/04/17 00:58:08;;;;;;;31.92;16.30;;;;;;;8.05;100.00;102461.38;4884578;29;20112;-78
2023/04/17 01:00:34;;;;;;;34.28;17.17;;;;;;;7.98;100.00;102445.13;4885572;29;20033;-78
2023/04/17 01:02:59;;;;;;;31.77;17.58;;;;;;;8.00;100.00;102455.63;4887144;29;20085;-79
2023/04/17 01:05:26;;;;;;;30.90;16.52;;;;;;;8.03;100.00;102458.00;4889590;29;20056;-79
2023/04/17 01:07:53;;;;;;;28.27;15.43;;;;;;;8.02;100.00;102454.50;4886676;29;20485;-78
2023/04/17 01:10:19;;;;;;;30.00;15.73;;;;;;;7.99;100.00;102456.59;4885759;29;20116;-78
2023/04/17 01:12:45;;;;;;;29.90;15.90;;;;;;;8.02;100.00;102451.03;4885867;29;20249;-78
2023/04/17 01:15:11;;;;;;;32.63;17.38;;;;;;;8.01;100.00;102463.44;4871330;29;20036;-78
2023/04/17 01:17:37;;;;;;;32.22;16.50;;;;;;;8.02;100.00;102465.13;4886821;29;20044;-79
2023/04/17 01:20:06;;;;;;;29.70;16.10;;;;;;;8.01;100.00;102465.25;4885378;29;20068;-78
2023/04/17 01:22:31;;;;;;;39.08;16.75;;;;;;;8.01;100.00;102458.13;4887532;29;20515;-78
2023/04/17 01:24:56;;;;;;;26.27;15.23;;;;;;;7.96;100.00;102452.41;4888603;29;20032;-78
2023/04/17 01:27:22;;;;;;;31.63;17.55;;;;;;;7.99;100.00;102451.28;4882030;29;20036;-78
2023/04/17 01:29:47;;;;;;;31.20;17.88;;;;;;;7.99;100.00;102457.44;4890377;29;20029;-78
2023/04/17 01:32:12;;;;;;;26.92;15.35;;;;;;;7.99;100.00;102449.47;4888178;29;20037;-78
2023/04/17 01:34:38;;;;;;;31.02;17.33;;;;;;;8.00;100.00;102464.44;4871447;29;20032;-79
2023/04/17 01:37:03;;;;;;;28.48;15.75;;;;;;;7.98;100.00;102465.56;4888669;29;20048;-78
2023/04/17 01:39:29;;;;;;;29.45;15.45;;;;;;;7.99;100.00;102462.75;4888364;29;20044;-79
2023/04/17 01:41:54;;;;;;;27.17;14.88;;;;;;;7.99;100.00;102469.88;4885948;29;20127;-79
2023/04/17 01:44:20;;;;;;;27.48;16.27;;;;;;;7.97;100.00;102466.53;4885886;29;20437;-78
2023/04/17 01:46:46;;;;;;;31.08;14.68;;;;;;;7.99;100.00;102464.56;4885345;29;20048;-78
2023/04/17 01:49:12;;;;;;;27.77;14.43;;;;;;;7.89;100.00;102454.78;4871534;29;20380;-78
2023/04/17 01:51:37;;;;;;;27.30;15.05;;;;;;;7.97;100.00;102464.72;4884791;29;20197;-79
2023/04/17 01:54:03;;;;;;;31.48;15.93;;;;;;;7.96;100.00;102465.69;4885368;29;20163;-79
2023/04/17 01:56:28;;;;;;;29.35;16.05;;;;;;;7.97;100.00;102467.38;4883347;29;20047;-78
2023/04/17 01:58:54;;;;;;;26.70;14.65;;;;;;;7.95;100.00;102463.19;4883704;29;20037;-79
2023/04/17 02:01:19;;;;;;;29.50;16.92;;;;;;;7.90;100.00;102463.59;4885425;29;20029;-78
2023/04/17 02:03:44;;;;;;;29.55;16.52;;;;;;;7.92;100.00;102466.94;4883404;29;20168;-78
2023/04/17 02:06:10;;;;;;;32.50;17.13;;;;;;;7.92;100.00;102472.25;4889197;29;20040;-78
2023/04/17 02:08:36;;;;;;;34.50;15.55;;;;;;;7.93;100.00;102467.78;4883778;29;20028;-78
2023/04/17 02:11:01;;;;;;;32.13;15.80;;;;;;;7.93;100.00;102470.44;4868133;29;20065;-78
2023/04/17 02:13:26;;;;;;;28.40;15.90;;;;;;;7.89;100.00;102461.94;4886023;29;20392;-78
2023/04/17 02:15:52;;;;;;;30.42;16.90;;;;;;;7.93;100.00;102467.78;4886245;29;20164;-78
2023/04/17 02:18:17;;;;;;;26.52;15.20;;;;;;;7.88;100.00;102465.53;4886660;29;20037;-78
2023/04/17 02:20:43;;;;;;;27.70;13.60;;;;;;;7.92;100.00;102469.59;4885638;29;20064;-78
2023/04/17 02:23:08;;;;;;;28.90;15.15;;;;;;;7.90;100.00;102472.38;4883810;29;20040;-78
2023/04/17 02:25:33;;;;;;;28.30;18.17;;;;;;;7.86;100.00;102462.22;4870542;29;20051;-78
2023/04/17 02:27:59;;;;;;;26.40;13.10;;;;;;;7.87;100.00;102463.88;4868185;29;20060;-78
2023/04/17 02:30:26;;;;;;;28.90;15.10;;;;;;;7.87;100.00;102461.22;4884403;29;20037;-78
2023/04/17 02:32:52;;;;;;;29.08;14.85;;;;;;;7.80;100.00;102455.59;4887852;29;20037;-78
2023/04/17 02:35:19;;;;;;;29.17;16.38;;;;;;;7.79;100.00;102459.25;4869535;29;20044;-78
2023/04/17 02:37:45;;;;;;;27.55;14.63;;;;;;;7.82;100.00;102466.09;4888503;29;20051;-78
2023/04/17 02:40:10;;;;;;;29.55;15.05;;;;;;;7.80;100.00;102468.88;4884721;29;20128;-78
2023/04/17 02:42:36;;;;;;;28.35;14.50;;;;;;;7.77;100.00;102471.00;4885914;29;20071;-79
2023/04/17 02:45:02;;;;;;;29.30;15.23;;;;;;;7.77;100.00;102469.16;4889054;29;20040;-78
2023/04/17 02:47:28;;;;;;;32.15;16.20;;;;;;;7.74;100.00;102473.94;4870676;29;20052;-78
2023/04/17 02:49:55;;;;;;;27.95;15.73;;;;;;;7.77;100.00;102474.47;4882118;29;20059;-78
2023/04/17 02:52:20;;;;;;;30.48;17.25;;;;;;;7.71;100.00;102464.41;4882257;29;20033;-78
2023/04/17 02:54:46;;;;;;;27.17;15.25;;;;;;;7.73;100.00;102477.53;4886685;29;20047;-78
2023/04/17 02:57:11;;;;;;;31.92;16.35;;;;;;;7.72;100.00;102478.53;4889502;29;20384;-78
2023/04/17 02:59:36;;;;;;;30.45;13.60;;;;;;;7.70;100.00;102473.34;4882148;29;20092;-78
2023/04/17 03:02:03;;;;;;;31.67;15.00;;;;;;;7.62;100.00;102467.88;4881121;29;20064;-78
2023/04/17 03:04:28;;;;;;;30.20;14.52;;;;;;;7.70;100.00;102483.97;4887766;29;20064;-78
2023/04/17 03:06:53;;;;;;;30.23;16.10;;;;;;;7.68;100.00;102484.13;4895800;29;20040;-78
2023/04/17 03:09:21;;;;;;;32.08;17.98;;;;;;;7.66;100.00;102477.28;4876023;29;20035;-78
2023/04/17 03:11:49;;;;;;;32.45;14.70;;;;;;;7.67;100.00;102478.94;4884664;29;20630;-78
2023/04/17 03:14:15;;;;;;;32.10;16.05;;;;;;;7.65;100.00;102486.19;4868992;29;20889;-78
2023/04/17 03:16:40;;;;;;;30.20;16.92;;;;;;;7.57;100.00;102473.63;4894265;29;20033;-78
2023/04/17 03:19:05;;;;;;;28.40;15.00;;;;;;;7.65;100.00;102488.84;4889308;29;20060;-78
2023/04/17 03:21:31;;;;;;;38.88;18.27;;;;;;;7.55;100.00;102483.53;4889661;29;20590;-78
2023/04/17 03:23:56;;;;;;;32.40;16.92;;;;;;;7.52;100.00;102482.94;4870931;29;20116;-78
2023/04/17 03:26:21;;;;;;;29.40;14.40;;;;;;;7.54;100.00;102483.66;4892357;29;20025;-78
2023/04/17 03:28:47;;;;;;;36.58;19.58;;;;;;;7.51;100.00;102478.63;4888206;29;20064;-78
2023/04/17 03:31:12;;;;;;;31.17;15.95;;;;;;;7.51;100.00;102486.59;4895719;29;20044;-78
2023/04/17 03:33:38;;;;;;;30.92;16.92;;;;;;;7.47;100.00;102478.06;4896475;29;20142;-78
2023/04/17 03:36:04;;;;;;;31.27;17.30;;;;;;;7.45;100.00;102485.31;4886624;29;20662;-78
2023/04/17 03:38:30;;;;;;;33.35;18.55;;;;;;;7.42;100.00;102481.13;4886990;29;20036;-78
2023/04/17 03:40:55;;;;;;;31.48;16.73;;;;;;;7.42;100.00;102478.47;4885176;29;20441;-78
2023/04/17 03:43:21;;;;;;;35.78;17.73;;;;;;;7.39;100.00;102485.88;4882672;29;20031;-78
2023/04/17 03:45:46;;;;;;;32.63;16.70;;;;;;;7.37;100.00;102480.69;4885300;29;20059;-78
2023/04/17 03:48:11;;;;;;;31.67;16.27;;;;;;;7.34;100.00;102473.00;4890358;29;20065;-78
2023/04/17 03:50:37;;;;;;;32.05;17.17;;;;;;;7.39;100.00;102480.56;4888912;29;20033;-78
2023/04/17 03:53:02;;;;;;;33.38;17.80;;;;;;;7.37;100.00;102482.50;4884972;29;20055;-77
2023/04/17 03:55:27;;;;;;;34.40;17.13;;;;;;;7.35;100.00;102473.84;4869589;29;20086;-78
2023/04/17 03:57:53;;;;;;;32.47;16.35;;;;;;;7.36;100.00;102488.78;4887518;29;20040;-78
2023/04/17 04:00:20;;;;;;;35.75;17.90;;;;;;;7.33;100.00;102481.09;4887712;29;20040;-78
2023/04/17 04:02:46;;;;;;;32.08;16.88;;;;;;;7.31;100.00;102483.03;4888750;29;20060;-77
2023/04/17 04:05:12;;;;;;;35.63;19.23;;;;;;;7.25;100.00;102474.63;4887378;29;20071;-78
2023/04/17 04:07:37;;;;;;;32.63;19.83;;;;;;;7.31;100.00;102485.69;4884573;29;20481;-78
2023/04/17 04:10:02;;;;;;;32.53;16.67;;;;;;;7.31;100.00;102489.22;4887093;29;20036;-78
2023/04/17 04:12:28;;;;;;;34.95;17.30;;;;;;;7.29;100.00;102487.66;4883412;29;20052;-78
2023/04/17 04:14:53;;;;;;;34.85;17.02;;;;;;;7.28;100.00;102488.63;4888129;29;20445;-78
2023/04/17 04:17:18;;;;;;;39.42;18.83;;;;;;;7.29;100.00;102479.69;4883463;29;20032;-78
2023/04/17 04:19:44;;;;;;;39.63;18.92;;;;;;;7.29;100.00;102479.69;4890289;29;20148;-78
2023/04/17 04:22:12;;;;;;;38.47;21.25;;;;;;;7.25;100.00;102477.28;4890184;29;20028;-78
2023/04/17 04:24:39;;;;;;;36.85;19.48;;;;;;;7.26;100.00;102480.81;4886217;29;20040;-78
2023/04/17 04:27:08;;;;;;;35.80;20.58;;;;;;;7.22;100.00;102482.88;4891341;29;20029;-78
2023/04/17 04:29:34;;;;;;;41.00;21.27;;;;;;;7.25;100.00;102493.22;4868874;29;20119;-78
2023/04/17 04:31:59;;;;;;;33.65;18.67;;;;;;;7.19;100.00;102483.16;4887720;29;20421;-77
2023/04/17 04:34:28;;;;;;;44.90;22.65;;;;;;;7.19;100.00;102485.78;4894051;29;20033;-77
2023/04/17 04:36:53;;;;;;;41.20;21.00;;;;;;;7.24;100.00;102498.66;4891552;29;20508;-78
2023/04/17 04:39:19;;;;;;;36.42;17.48;;;;;;;7.21;100.00;102489.16;4867137;29;20051;-78
2023/04/17 04:41:49;;;;;;;36.03;19.13;;;;;;;7.22;100.00;102493.50;4890056;29;20039;-78
2023/04/17 04:44:18;;;;;;;40.05;22.58;;;;;;;7.20;100.00;102489.28;4885373;29;20036;-78
2023/04/17 04:46:44;;;;;;;35.13;17.48;;;;;;;7.13;100.00;102475.72;4869322;29;20046;-78
2023/04/17 04:49:09;;;;;;;37.83;19.33;;;;;;;7.20;100.00;102502.56;4885905;29;20120;-78
2023/04/17 04:51:35;;;;;;;35.50;20.83;;;;;;;7.22;100.00;102503.25;4867909;29;20044;-79
2023/04/17 04:54:01;;;;;;;41.05;21.65;;;;;;;7.23;100.00;102497.84;4890305;29;20036;-79
2023/04/17 04:56:27;;;;;;;36.75;19.77;;;;;;;7.18;100.00;102497.41;4885225;29;20045;-79
2023/04/17 04:58:52;;;;;;;39.63;21.35;;;;;;;7.18;100.00;102502.72;4870641;29;20093;-78
2023/04/17 05:01:18;;;;;;;42.05;22.13;;;;;;;7.14;100.00;102492.47;4884398;29;20101;-79
2023/04/17 05:03:43;;;;;;;40.63;21.02;;;;;;;7.16;100.00;102507.28;4888246;29;20481;-80
2023/04/17 05:06:10;;;;;;;36.42;17.90;;;;;;;7.13;100.00;102504.91;4887024;29;20079;-74
2023/04/17 05:08:35;;;;;;;41.55;20.83;;;;;;;7.10;100.00;102499.00;4871191;29;20446;-74
2023/04/17 05:11:02;;;;;;;37.75;19.15;;;;;;;7.18;100.00;102512.50;4895453;29;20127;-74
2023/04/17 05:13:29;;;;;;;47.05;22.63;;;;;;;7.21;100.00;102517.53;4877640;29;20093;-74
2023/04/17 05:15:54;;;;;;;37.13;18.20;;;;;;;7.20;100.00;102516.69;4895069;29;20044;-74
2023/04/17 05:18:20;;;;;;;39.53;20.65;;;;;;;7.20;100.00;102526.44;4887181;29;20388;-73
2023/04/17 05:20:45;;;;;;;39.65;18.75;;;;;;;7.15;100.00;102518.03;4879118;29;20564;-74
2023/04/17 05:23:10;;;;;;;47.08;23.13;;;;;;;7.21;100.00;102517.53;4864252;29;20481;-72
2023/04/17 05:25:36;;;;;;;36.17;20.92;;;;;;;7.21;100.00;102528.13;4879396;29;20470;-72
2023/04/17 05:28:01;;;;;;;42.72;21.35;;;;;;;7.23;100.00;102527.03;4880093;29;20367;-73
2023/04/17 05:30:26;;;;;;;39.53;19.77;;;;;;;7.23;100.00;102532.34;4880026;29;20064;-71
2023/04/17 05:32:53;;;;;;;40.63;21.83;;;;;;;7.22;100.00;102529.81;4879978;29;20595;-73
2023/04/17 05:35:18;;;;;;;40.75;21.25;;;;;;;7.21;100.00;102526.31;4863418;29;20037;-73
2023/04/17 05:37:44;;;;;;;43.25;22.63;;;;;;;7.28;100.00;102531.06;4871495;29;20100;-72
2023/04/17 05:40:09;;;;;;;43.28;19.90;;;;;;;7.26;100.00;102536.53;4879995;29;20031;-72
2023/04/17 05:42:35;;;;;;;35.92;18.90;;;;;;;7.30;100.00;102537.94;4862891;29;21027;-73
2023/04/17 05:45:01;;;;;;;41.17;21.30;;;;;;;7.28;100.00;102534.56;4880391;29;20366;-73
2023/04/17 05:47:26;;;;;;;42.60;21.65;;;;;;;7.27;100.00;102530.25;4854142;29;20096;-72
2023/04/17 05:49:56;;;;;;;38.83;21.90;;;;;;;7.31;100.00;102542.28;4870706;29;20040;-72
2023/04/17 05:52:21;;;;;;;39.83;19.48;;;;;;;7.32;100.00;102535.16;4880025;29;21013;-72
2023/04/17 05:54:47;;;;;;;35.67;17.70;;;;;;;7.25;100.00;102524.22;4880094;29;20041;-72
2023/04/17 05:57:12;;;;;;;34.80;19.30;;;;;;;7.36;100.00;102540.06;4879123;29;20512;-72
2023/04/17 05:59:38;;;;;;;35.90;19.60;;;;;;;7.35;100.00;102538.38;4870386;29;20041;-74
2023/04/17 06:02:03;;;;;;;33.88;18.20;;;;;;;7.39;100.00;102546.94;4868721;29;20036;-73
2023/04/17 06:04:28;;;;;;;32.15;18.58;;;;;;;7.39;100.00;102549.59;4883319;29;20033;-72
2023/04/17 06:06:54;;;;;;;31.05;17.15;;;;;;;7.39;100.00;102552.25;4879797;29;20127;-74
2023/04/17 06:09:20;;;;;;;34.38;19.27;;;;;;;7.38;100.00;102547.88;4879834;29;20404;-72
2023/04/17 06:11:45;;;;;;;36.08;21.15;;;;;;;7.39;100.00;102552.25;4878858;29;20037;-73
2023/04/17 06:14:11;;;;;;;32.45;17.90;;;;;;;7.42;100.00;102558.09;4880280;29;20040;-75
2023/04/17 06:16:36;;;;;;;33.13;19.45;;;;;;;7.42;100.00;102560.75;4879034;29;20437;-73
2023/04/17 06:19:01;;;;;;;32.75;17.35;;;;;;;7.45;100.00;102559.66;4879932;29;20068;-73
2023/04/17 06:21:27;;;;;;;30.25;18.75;;;;;;;7.42;100.00;102558.09;4860554;29;20041;-73
2023/04/17 06:23:52;;;;;;;33.88;18.65;;;;;;;7.46;100.00;102567.47;4866748;29;20434;-74
2023/04/17 06:26:18;;;;;;;31.92;17.52;;;;;;;7.46;100.00;102563.97;4859602;29;20044;-72
2023/04/17 06:28:43;;;;;;;35.13;17.58;;;;;;;7.50;100.00;102556.59;4865268;29;20056;-73
2023/04/17 06:31:08;;;;;;;34.45;19.00;;;;;;;7.45;100.00;102543.72;4860362;29;20064;-72
2023/04/17 06:33:34;;;;;;;36.22;20.88;;;;;;;7.50;100.00;102562.75;4859531;29;20041;-73
2023/04/17 06:35:59;;;;;;;35.25;19.90;;;;;;;7.56;100.00;102561.38;4864369;29;20354;-73
2023/04/17 06:38:25;;;;;;;33.65;18.63;;;;;;;7.57;100.00;102563.03;4860064;29;20043;-73
2023/04/17 06:40:50;;;;;;;34.05;18.60;;;;;;;7.60;100.00;102574.25;4852733;29;20562;-73
2023/04/17 06:43:16;;;;;;;33.72;18.73;;;;;;;7.66;100.00;102573.69;4844387;29;20477;-73
2023/04/17 06:45:41;;;;;;;33.58;18.77;;;;;;;7.67;100.00;102578.03;4859869;29;20043;-73
2023/04/17 06:48:07;;;;;;;32.88;16.83;;;;;;;7.59;100.00;102566.41;4879513;29;20454;-73
2023/04/17 06:50:33;;;;;;;33.83;17.83;;;;;;;7.68;100.00;102586.84;4860237;29;20040;-73
2023/04/17 06:52:58;;;;;;;33.65;18.65;;;;;;;7.60;100.00;102563.63;4859792;29;21275;-73
2023/04/17 06:55:24;;;;;;;34.35;17.98;;;;;;;7.68;100.00;102587.69;4860075;29;20402;-72
2023/04/17 06:57:49;;;;;;;32.33;16.75;;;;;;;7.71;100.00;102585.75;4860427;29;20493;-73
2023/04/17 07:00:15;;;;;;;32.25;18.35;;;;;;;7.71;100.00;102588.41;4859660;29;20029;-73
2023/04/17 07:02:40;;;;;;;36.55;20.48;;;;;;;7.69;100.00;102585.88;4860184;29;20496;-73
2023/04/17 07:05:06;;;;;;;35.53;18.42;;;;;;;7.68;100.00;102566.44;4859584;29;20024;-73
2023/04/17 07:07:33;;;;;;;33.30;16.67;;;;;;;7.84;100.00;102586.34;4859839;29;20041;-73
2023/04/17 07:09:58;;;;;;;37.53;20.70;;;;;;;7.81;100.00;102573.34;4859662;29;20064;-73
2023/04/17 07:12:25;;;;;;;33.67;17.92;;;;;;;7.89;100.00;102592.94;4859887;29;20135;-73
2023/04/17 07:14:50;;;;;;;33.20;18.02;;;;;;;7.63;100.00;102552.72;4859957;29;20048;-73
2023/04/17 07:17:16;;;;;;;34.47;18.33;;;;;;;7.91;100.00;102595.44;4859988;29;20443;-73
2023/04/17 07:19:41;;;;;;;31.85;17.40;;;;;;;7.97;100.00;102608.19;4858298;29;20053;-72
2023/04/17 07:22:06;;;;;;;37.75;19.02;;;;;;;7.97;100.00;102599.38;4859942;29;20037;-71
2023/04/17 07:24:33;;;;;;;36.50;19.77;;;;;;;8.04;100.00;102606.69;4858801;29;20059;-72
2023/04/17 07:27:00;;;;;;;31.73;17.80;;;;;;;8.12;100.00;102611.28;4860676;29;20029;-72
2023/04/17 07:29:26;;;;;;;32.63;17.23;;;;;;;8.18;100.00;102616.06;4859586;29;20049;-72
2023/04/17 07:31:51;;;;;;;34.65;18.58;;;;;;;8.22;100.00;102612.13;4859746;29;20040;-72
2023/04/17 07:34:16;;;;;;;34.55;18.48;;;;;;;8.26;100.00;102621.53;4864528;29;20029;-72
2023/04/17 07:36:42;;;;;;;34.85;18.95;;;;;;;8.29;100.00;102617.75;4858687;29;20037;-72
2023/04/17 07:39:08;;;;;;;36.72;19.92;;;;;;;8.26;100.00;102605.59;4860243;29;20089;-71
2023/04/17 07:41:33;;;;;;;37.05;18.85;;;;;;;8.35;100.00;102617.19;4859809;29;20096;-72
2023/04/17 07:44:02;;;;;;;32.03;17.90;;;;;;;8.37;100.00;102623.22;4858860;29;20045;-73
2023/04/17 07:46:27;;;;;;;37.72;21.05;;;;;;;8.42;100.00;102625.50;4864452;29;20048;-72
2023/04/17 07:48:52;;;;;;;33.22;17.15;;;;;;;8.43;100.00;102622.69;4861564;29;20481;-72
2023/04/17 07:51:18;;;;;;;32.25;18.65;;;;;;;8.49;100.00;102619.50;4863057;29;20504;-72
2023/04/17 07:53:43;;;;;;;35.63;19.13;;;;;;;8.60;100.00;102623.84;4863252;29;20088;-73
2023/04/17 07:56:08;;;;;;;35.47;19.20;;;;;;;8.79;100.00;102620.31;4863115;29;20067;-73
2023/04/17 07:58:37;;;;;;;32.35;17.40;;;;;;;8.89;100.00;102628.31;4860906;29;20075;-73
2023/04/17 08:01:05;;;;;;;31.75;17.38;;;;;;;8.85;100.00;102625.06;4863446;29;20029;-73
2023/04/17 08:03:31;;;;;;;35.00;17.80;;;;;;;8.79;100.00;102628.31;4862110;29;20033;-74
2023/04/17 08:05:57;;;;;;;36.30;19.00;;;;;;;8.74;100.00;102620.72;4858244;29;20025;-75
2023/04/17 08:08:23;;;;;;;34.50;18.55;;;;;;;8.87;100.00;102620.44;4869844;29;20078;-75
2023/04/17 08:10:49;;;;;;;31.90;17.15;;;;;;;9.02;100.00;102628.84;4860365;29;20640;-71
2023/04/17 08:13:15;;;;;;;33.10;19.33;;;;;;;9.15;100.00;102629.38;4861414;29;20045;-73
2023/04/17 08:15:40;;;;;;;34.08;18.23;;;;;;;9.28;100.00;102634.41;4859119;29;20038;-73
2023/04/17 08:18:08;;;;;;;31.00;18.35;;;;;;;9.37;100.00;102633.50;4859343;29;20041;-73
2023/04/17 08:20:34;;;;;;;30.98;18.55;;;;;;;9.42;100.00;102635.75;4874238;29;20140;-73
2023/04/17 08:23:00;;;;;;;31.88;19.13;;;;;;;9.48;100.00;102629.00;4878215;29;20048;-73
2023/04/17 08:25:25;;;;;;;34.50;19.60;;;;;;;9.52;100.00;102636.56;4861395;29;20040;-73
2023/04/17 08:27:50;;;;;;;32.30;19.52;;;;;;;9.44;100.00;102642.59;4878094;29;20040;-73
2023/04/17 08:30:16;;;;;;;35.00;18.23;;;;;;;9.37;100.00;102630.00;4878486;29;20044;-73
2023/04/17 08:32:44;;;;;;;31.40;17.85;;;;;;;9.42;100.00;102635.75;4861780;29;20116;-73
2023/04/17 08:35:11;;;;;;;29.05;16.75;;;;;;;9.41;100.00;102634.91;4896193;29;20028;-73
2023/04/17 08:37:37;;;;;;;37.40;20.73;;;;;;;9.33;100.00;102648.13;4896404;29;20119;-73
2023/04/17 08:40:05;;;;;;;33.03;17.77;;;;;;;9.25;100.00;102632.03;4896257;29;20169;-73
2023/04/17 08:42:34;;;;;;;36.03;18.08;;;;;;;9.24;100.00;102638.31;4896357;29;20115;-73
2023/04/17 08:45:03;;;;;;;33.90;20.52;;;;;;;9.33;100.00;102642.78;4896205;29;20037;-73
2023/04/17 08:47:29;;;;;;;31.20;17.63;;;;;;;9.39;100.00;102631.56;4896177;29;20055;-74
2023/04/17 08:49:56;;;;;;;31.52;19.10;;;;;;;9.52;100.00;102644.56;4895984;29;20404;-73
2023/04/17 08:52:22;;;;;;;30.30;17.45;;;;;;;9.65;100.00;102637.06;4895853;29;20040;-73
2023/04/17 08:54:47;;;;;;;34.95;18.60;;;;;;;9.79;100.00;102646.41;4895995;29;20040;-73
2023/04/17 08:57:13;;;;;;;32.58;19.15;;;;;;;9.79;100.00;102643.72;4895847;29;20039;-73
2023/04/17 08:59:40;;;;;;;32.15;18.58;;;;;;;9.78;100.00;102634.06;4863422;29;20036;-73
2023/04/17 09:02:07;;;;;;;32.10;18.70;;;;;;;9.90;100.00;102647.19;4896014;29;20036;-73
2023/04/17 09:04:40;;;;;;;34.30;19.67;;;;;;;10.00;100.00;102648.81;4877847;29;20500;-73
2023/04/17 09:07:08;;;;;;;33.88;19.30;;;;;;;10.16;100.00;102644.66;4895501;29;20093;-73
2023/04/17 09:09:50;;;;;;;33.30;18.52;;;;;;;10.27;100.00;102640.00;4885803;29;20077;-73
2023/04/17 09:12:17;;;;;;;35.70;20.20;;;;;;;10.33;100.00;102648.41;4877611;29;20032;-73
2023/04/17 09:14:43;;;;;;;31.90;18.45;;;;;;;10.35;100.00;102638.41;4877518;29;20129;-74
2023/04/17 09:17:08;;;;;;;30.73;17.80;;;;;;;10.50;100.00;102655.56;4860996;29;20127;-73
2023/04/17 09:19:34;;;;;;;33.30;19.52;;;;;;;10.51;100.00;102652.75;4877508;29;20064;-73
2023/04/17 09:22:21;;;;;;;37.63;21.88;;;;;;;10.46;100.00;102652.38;4876098;29;20041;-73
2023/04/17 09:24:47;;;;;;;34.72;20.17;;;;;;;10.44;100.00;102649.00;4877526;29;20048;-73
2023/04/17 09:27:22;;;;;;;32.15;20.60;;;;;;;10.46;100.00;102648.88;4877552;29;20025;-73
2023/04/17 09:29:56;;;;;;;33.22;19.25;;;;;;;10.65;100.00;102650.53;4877559;29;20037;-73
2023/04/17 09:32:21;;;;;;;35.85;19.75;;;;;;;10.86;100.00;102642.22;4877564;29;20036;-73
2023/04/17 09:34:47;;;;;;;34.55;18.40;;;;;;;10.94;98.10;102635.09;4877398;29;20481;-73
2023/04/17 09:37:12;;;;;;;32.47;18.40;;;;;;;11.08;98.57;102636.41;4895200;29;20123;-73
2023/04/17 09:39:38;;;;;;;33.63;19.58;;;;;;;11.14;97.20;102642.94;4878404;29;20044;-73
2023/04/17 09:42:09;;;;;;;33.10;18.05;;;;;;;11.26;96.80;102633.66;4895101;29;20605;-73
2023/04/17 09:44:36;;;;;;;33.08;19.80;;;;;;;11.41;96.58;102642.78;4878105;29;20040;-73
2023/04/17 09:47:03;;;;;;;29.38;16.73;;;;;;;11.57;94.23;102641.19;4878415;29;20370;-73
2023/04/17 09:49:33;;;;;;;31.77;18.92;;;;;;;11.81;94.86;102651.97;4894852;29;20104;-74
2023/04/17 09:51:58;;;;;;;33.75;17.77;;;;;;;11.84;90.63;102634.78;4894901;29;20070;-73
2023/04/17 09:54:25;;;;;;;33.00;20.15;;;;;;;11.79;92.97;102645.16;4878142;29;20068;-74
2023/04/17 09:56:54;;;;;;;30.95;18.20;;;;;;;11.75;90.47;102646.47;4876908;29;20028;-73
2023/04/17 09:59:22;;;;;;;33.83;19.35;;;;;;;11.59;91.29;102650.72;4894966;29;20043;-73
2023/04/17 10:01:49;;;;;;;31.85;17.38;;;;;;;11.55;91.06;102641.38;4893957;29;20120;-73
2023/04/17 10:04:14;;;;;;;32.10;19.08;;;;;;;11.69;90.43;102631.06;4876927;29;20060;-73
2023/04/17 10:06:40;;;;;;;30.45;18.25;;;;;;;11.89;89.48;102642.38;4894697;29;20032;-73
2023/04/17 10:09:06;;;;;;;29.33;17.38;;;;;;;12.13;88.35;102646.94;4894610;29;20032;-73
2023/04/17 10:11:39;;;;;;;32.03;18.45;;;;;;;12.08;89.57;102636.78;4894209;29;20071;-74
2023/04/17 10:14:28;;;;;;;32.42;21.30;;;;;;;12.05;87.49;102659.31;4877557;29;20296;-73
2023/04/17 10:16:54;;;;;;;33.80;16.58;;;;;;;12.13;88.99;102633.56;4877638;29;20040;-74
2023/04/17 10:19:24;;;;;;;30.85;18.98;;;;;;;12.22;87.95;102637.97;4862160;29;20512;-73
2023/04/17 10:22:16;;;;;;;32.72;16.70;;;;;;;12.20;86.56;102643.47;4894211;29;20060;-74
2023/04/17 10:24:46;;;;;;;29.02;17.05;;;;;;;12.05;85.93;102621.88;4894352;29;20055;-73
2023/04/17 10:27:26;;;;;;;30.05;16.95;;;;;;;12.27;87.23;102633.78;4894446;29;20060;-74
2023/04/17 10:30:00;;;;;;;29.42;16.75;;;;;;;12.22;84.77;102625.41;4894419;29;20433;-73
2023/04/17 10:32:29;;;;;;;29.75;16.20;;;;;;;12.46;85.04;102629.97;4877420;29;20020;-73
2023/04/17 10:34:56;;;;;;;27.33;13.65;;;;;;;12.47;83.36;102638.84;4894268;29;20135;-73
2023/04/17 10:37:50;;;;;;;25.00;14.68;;;;;;;12.48;84.53;102632.50;4877220;29;20124;-73
2023/04/17 10:40:35;;;;;;;28.48;16.13;;;;;;;12.52;83.11;102633.81;4894080;29;20095;-74
2023/04/17 10:43:13;;;;;;;31.42;15.50;;;;;;;12.57;82.16;102614.59;4894198;29;20025;-74
2023/04/17 10:45:55;;;;;;;28.42;16.48;;;;;;;12.62;81.08;102628.31;4894314;29;20041;-73
2023/04/17 10:48:21;;;;;;;;;;;;;;;12.62;84.01;102621.13;4876581;29;20048;-74
2023/04/17 10:50:46;;;;;;;28.33;15.90;;;;;;;12.58;80.41;102617.13;4894225;29;20010;-73
2023/04/17 10:53:37;;;;;;;28.90;15.05;;;;;;;12.62;82.26;102631.81;4877223;29;20100;-73
2023/04/17 10:56:02;;;;;;;26.85;15.77;;;;;;;12.50;79.71;102622.47;4875070;29;20115;-73
2023/04/17 10:58:28;;;;;;;29.00;16.15;;;;;;;12.57;80.67;102622.63;4846802;29;20123;-73
2023/04/17 11:00:54;;;;;;;28.55;16.70;;;;;;;12.55;80.17;102614.78;4893994;29;20641;-73
2023/04/17 11:03:21;;;;;;;27.25;16.27;;;;;;;12.68;79.38;102608.91;4877316;29;20037;-73
2023/04/17 11:05:47;;;;;;;29.55;16.73;;;;;;;12.94;80.15;102614.94;4894117;29;20032;-73
2023/04/17 11:08:13;;;;;;;29.20;16.92;;;;;;;13.12;76.52;102627.28;4892105;29;20024;-79